createdAt,value
2023-03-04T00:01:30.685Z,53.05
2023-03-04T00:03:57.721Z,55.30
2023-03-04T00:06:24.695Z,47.92
2023-03-04T00:08:51.706Z,53.58
2023-03-04T00:11:18.659Z,50.97
2023-03-04T00:13:45.617Z,49.00
2023-03-04T00:16:12.696Z,53.10
2023-03-04T00:18:39.739Z,47.20
2023-03-04T00:21:06.828Z,50.95
2023-03-04T00:23:33.642Z,54.45
2023-03-04T00:26:00.629Z,55.55
2023-03-04T00:28:28.136Z,49.47
2023-03-04T00:30:55.039Z,51.00
2023-03-04T00:33:21.929Z,53.05
2023-03-04T00:35:49.153Z,49.45
2023-03-04T00:38:16.173Z,49.90
2023-03-04T00:40:43.142Z,50.15
2023-03-04T00:43:10.441Z,53.80
2023-03-04T00:45:37.303Z,53.13
2023-03-04T00:48:04.456Z,51.75
2023-03-04T00:50:31.822Z,52.13
2023-03-04T00:52:58.801Z,55.13
2023-03-04T00:55:25.809Z,49.15
2023-03-04T00:57:52.824Z,54.33
2023-03-04T01:00:20.127Z,47.80
2023-03-04T01:02:47.098Z,55.42
2023-03-04T01:05:14.811Z,52.47
2023-03-04T01:07:41.692Z,54.55
2023-03-04T01:10:10.044Z,49.90
2023-03-04T01:12:37.113Z,52.10
2023-03-04T01:15:05.049Z,53.85
2023-03-04T01:17:31.958Z,52.47
2023-03-04T01:19:58.839Z,55.55
2023-03-04T01:22:25.617Z,46.85
2023-03-04T01:24:52.469Z,54.33
2023-03-04T01:27:19.763Z,51.30
2023-03-04T01:29:46.598Z,50.67
2023-03-04T01:32:13.435Z,50.40
2023-03-04T01:34:41.057Z,50.28
2023-03-04T01:37:08.001Z,50.55
2023-03-04T01:39:35.353Z,55.70
2023-03-04T01:42:02.445Z,47.53
2023-03-04T01:44:29.384Z,52.95
2023-03-04T01:46:56.760Z,49.97
2023-03-04T01:49:23.899Z,50.22
2023-03-04T01:51:54.061Z,46.80
2023-03-04T01:54:22.744Z,48.20
2023-03-04T01:56:51.667Z,50.05
2023-03-04T01:59:26.291Z,46.97
2023-03-04T02:01:59.299Z,55.10
2023-03-04T02:04:29.289Z,52.60
2023-03-04T02:06:58.063Z,52.63
2023-03-04T02:09:25.189Z,61.05
2023-03-04T02:11:53.364Z,54.25
2023-03-04T02:14:21.574Z,53.95
2023-03-04T02:16:49.347Z,54.33
2023-03-04T02:19:45.481Z,53.75
2023-03-04T02:22:12.413Z,53.60
2023-03-04T02:25:07.393Z,49.22
2023-03-04T02:27:34.281Z,53.15
2023-03-04T02:30:01.096Z,51.25
2023-03-04T02:32:28.095Z,52.42
2023-03-04T02:34:56.306Z,50.72
2023-03-04T02:37:23.353Z,48.50
2023-03-04T02:39:51.077Z,49.70
2023-03-04T02:42:18.864Z,50.35
2023-03-04T02:44:48.411Z,46.08
2023-03-04T02:47:20.365Z,46.08
2023-03-04T02:49:47.674Z,49.72
2023-03-04T02:52:25.696Z,49.90
2023-03-04T02:54:52.553Z,52.67
2023-03-04T02:57:19.337Z,48.83
2023-03-04T02:59:46.209Z,50.97
2023-03-04T03:02:13.166Z,45.72
2023-03-04T03:04:40.710Z,54.45
2023-03-04T03:07:08.386Z,47.15
2023-03-04T03:09:35.331Z,51.17
2023-03-04T03:12:02.276Z,50.95
2023-03-04T03:14:34.968Z,46.03
2023-03-04T03:17:01.971Z,55.13
2023-03-04T03:19:28.767Z,53.88
2023-03-04T03:21:55.693Z,48.78
2023-03-04T03:24:22.486Z,45.72
2023-03-04T03:26:49.450Z,48.15
2023-03-04T03:29:16.538Z,47.88
2023-03-04T03:31:43.790Z,50.58
2023-03-04T03:34:10.709Z,47.97
2023-03-04T03:36:37.568Z,45.45
2023-03-04T03:39:04.612Z,52.40
2023-03-04T03:41:31.646Z,51.17
2023-03-04T03:43:58.552Z,50.38
2023-03-04T03:46:25.421Z,50.88
2023-03-04T03:48:52.227Z,51.38
2023-03-04T03:51:19.008Z,50.42
2023-03-04T03:53:46.004Z,56.00
2023-03-04T03:56:12.823Z,52.33
2023-03-04T03:58:39.763Z,50.35
2023-03-04T04:01:06.687Z,47.97
2023-03-04T04:03:33.545Z,50.17
2023-03-04T04:06:00.513Z,51.97
2023-03-04T04:08:27.614Z,46.85
2023-03-04T04:10:54.578Z,52.00
2023-03-04T04:13:21.500Z,52.42
2023-03-04T04:15:48.296Z,50.40
2023-03-04T04:18:15.234Z,47.58
2023-03-04T04:20:42.193Z,44.17
2023-03-04T04:23:09.176Z,46.33
2023-03-04T04:25:36.324Z,48.95
2023-03-04T04:28:03.520Z,47.95
2023-03-04T04:30:30.437Z,39.13
2023-03-04T04:32:57.353Z,41.35
2023-03-04T04:35:24.394Z,44.78
2023-03-04T04:37:51.365Z,41.30
2023-03-04T04:40:18.298Z,41.17
2023-03-04T04:42:45.198Z,42.47
2023-03-04T04:45:12.675Z,46.75
2023-03-04T04:47:39.710Z,45.00
2023-03-04T04:50:07.547Z,40.83
2023-03-04T04:52:34.472Z,44.60
2023-03-04T04:55:01.544Z,42.55
2023-03-04T04:57:28.547Z,44.83
2023-03-04T04:59:55.506Z,41.50
2023-03-04T05:02:22.433Z,47.38
2023-03-04T05:04:49.426Z,37.72
2023-03-04T05:07:16.404Z,45.03
2023-03-04T05:09:43.400Z,40.75
2023-03-04T05:12:10.314Z,42.38
2023-03-04T05:14:37.445Z,44.03
2023-03-04T05:17:04.458Z,49.67
2023-03-04T05:19:31.307Z,43.25
2023-03-04T05:21:58.097Z,44.55
2023-03-04T05:24:25.224Z,42.65
2023-03-04T05:26:52.068Z,40.85
2023-03-04T05:29:18.910Z,43.90
2023-03-04T05:31:45.837Z,39.70
2023-03-04T05:34:12.890Z,43.00
2023-03-04T05:36:39.825Z,45.60
2023-03-04T05:39:06.744Z,45.05
2023-03-04T05:41:33.708Z,44.47
2023-03-04T05:44:00.509Z,44.65
2023-03-04T05:46:27.408Z,44.10
2023-03-04T05:48:55.117Z,39.67
2023-03-04T05:51:22.656Z,45.05
2023-03-04T05:53:49.943Z,41.13
2023-03-04T05:56:19.543Z,44.30
2023-03-04T05:58:49.304Z,38.40
2023-03-04T06:01:16.834Z,41.20
2023-03-04T06:03:43.930Z,39.65
2023-03-04T06:06:11.106Z,39.78
2023-03-04T06:08:37.997Z,37.70
2023-03-04T06:11:05.869Z,35.90
2023-03-04T06:13:33.493Z,39.25
2023-03-04T06:16:00.666Z,39.13
2023-03-04T06:18:28.982Z,36.78
2023-03-04T06:20:58.628Z,39.15
2023-03-04T06:23:26.797Z,39.30
2023-03-04T06:25:59.154Z,43.50
2023-03-04T06:28:26.415Z,34.45
2023-03-04T06:30:54.887Z,38.72
2023-03-04T06:33:22.568Z,36.85
2023-03-04T06:35:53.434Z,36.70
2023-03-04T06:38:20.249Z,34.33
2023-03-04T06:40:47.127Z,38.72
2023-03-04T06:43:13.994Z,31.80
2023-03-04T06:45:40.939Z,37.95
2023-03-04T06:48:07.941Z,36.35
2023-03-04T06:50:34.795Z,35.63
2023-03-04T06:53:01.841Z,35.30
2023-03-04T06:55:29.008Z,37.22
2023-03-04T06:57:55.928Z,36.88
2023-03-04T07:00:24.566Z,42.45
2023-03-04T07:02:54.041Z,33.00
2023-03-04T07:05:21.939Z,39.47
2023-03-04T07:07:49.631Z,34.30
2023-03-04T07:10:18.238Z,34.90
2023-03-04T07:12:46.884Z,30.33
2023-03-04T07:15:13.835Z,27.02
2023-03-04T07:17:40.918Z,32.60
2023-03-04T07:20:08.496Z,26.35
2023-03-04T07:22:35.273Z,33.65
2023-03-04T07:25:02.240Z,26.40
2023-03-04T07:27:29.025Z,32.38
2023-03-04T07:29:55.863Z,30.02
2023-03-04T07:32:23.463Z,29.77
2023-03-04T07:34:51.014Z,32.65
2023-03-04T07:37:18.153Z,26.42
2023-03-04T07:39:45.640Z,26.83
2023-03-04T07:42:12.600Z,29.92
2023-03-04T07:44:39.589Z,26.38
2023-03-04T07:47:06.616Z,25.40
2023-03-04T07:49:33.487Z,25.08
2023-03-04T07:52:04.203Z,37.78
2023-03-04T07:54:31.157Z,30.27
2023-03-04T07:56:58.047Z,24.77
2023-03-04T07:59:25.372Z,24.20
2023-03-04T08:01:52.395Z,25.58
2023-03-04T08:04:19.212Z,31.10
2023-03-04T08:06:46.085Z,28.27
2023-03-04T08:09:14.191Z,32.22
2023-03-04T08:11:41.468Z,23.90
2023-03-04T08:14:09.408Z,30.80
2023-03-04T08:16:36.351Z,27.02
2023-03-04T08:19:04.687Z,26.90
2023-03-04T08:21:32.215Z,26.00
2023-03-04T08:24:02.536Z,28.10
2023-03-04T08:26:34.117Z,28.60
2023-03-04T08:29:02.843Z,25.67
2023-03-04T08:31:30.216Z,27.80
2023-03-04T08:33:57.195Z,28.98
2023-03-04T08:36:24.242Z,22.05
2023-03-04T08:38:51.034Z,32.10
2023-03-04T08:41:18.179Z,28.70
2023-03-04T08:43:45.232Z,27.98
2023-03-04T08:46:12.211Z,26.23
2023-03-04T08:48:39.330Z,25.90
2023-03-04T08:51:11.550Z,25.50
2023-03-04T08:53:39.753Z,25.52
2023-03-04T08:56:08.326Z,26.50
2023-03-04T08:58:35.439Z,21.15
2023-03-04T09:01:03.055Z,26.77
2023-03-04T09:03:30.073Z,26.48
2023-03-04T09:05:57.231Z,22.58
2023-03-04T09:08:24.401Z,24.77
2023-03-04T09:10:54.421Z,26.77
2023-03-04T09:13:24.579Z,23.67
2023-03-04T09:15:53.561Z,24.35
2023-03-04T09:18:22.988Z,26.30
2023-03-04T09:20:50.258Z,20.48
2023-03-04T09:23:18.285Z,20.40
2023-03-04T09:25:46.781Z,20.90
2023-03-04T09:28:14.722Z,21.05
2023-03-04T09:30:42.274Z,19.30
2023-03-04T09:33:09.466Z,20.27
2023-03-04T09:35:36.817Z,28.30
2023-03-04T09:38:04.669Z,22.35
2023-03-04T09:40:44.672Z,19.08
2023-03-04T09:43:30.122Z,20.70
2023-03-04T09:46:08.812Z,17.10
2023-03-04T09:48:51.119Z,29.35
2023-03-04T09:51:40.506Z,19.23
2023-03-04T09:54:11.557Z,15.40
2023-03-04T09:56:40.906Z,21.70
2023-03-04T09:59:13.317Z,21.75
2023-03-04T10:01:42.208Z,19.42
2023-03-04T10:04:22.393Z,23.63
2023-03-04T10:06:54.614Z,19.70
2023-03-04T10:09:30.486Z,16.77
2023-03-04T10:12:04.764Z,17.80
2023-03-04T10:14:40.190Z,18.73
2023-03-04T10:17:22.380Z,18.40
2023-03-04T10:19:58.918Z,19.98
2023-03-04T10:22:44.967Z,17.67
2023-03-04T10:25:24.600Z,15.02
2023-03-04T10:27:51.570Z,17.50
2023-03-04T10:30:55.424Z,22.98
2023-03-04T10:33:26.820Z,18.33
2023-03-04T10:36:02.017Z,22.00
2023-03-04T10:38:39.298Z,18.35
2023-03-04T10:41:20.850Z,14.98
2023-03-04T10:44:09.590Z,21.35
2023-03-04T10:46:45.137Z,14.68
2023-03-04T10:49:17.455Z,18.10
2023-03-04T10:51:45.582Z,12.35
2023-03-04T10:54:42.223Z,16.42
2023-03-04T10:57:35.267Z,14.18
2023-03-04T11:00:20.384Z,13.93
2023-03-04T11:02:49.023Z,15.05
2023-03-04T11:05:18.051Z,11.35
2023-03-04T11:07:55.103Z,16.75
2023-03-04T11:10:30.551Z,15.77
2023-03-04T11:13:12.360Z,15.25
2023-03-04T11:16:23.553Z,16.50
2023-03-04T11:18:58.146Z,14.10
2023-03-04T11:21:28.938Z,15.55
2023-03-04T11:24:04.944Z,15.52
2023-03-04T11:26:53.973Z,14.43
2023-03-04T11:29:23.196Z,19.15
2023-03-04T11:31:56.804Z,14.52
2023-03-04T11:34:54.540Z,16.10
2023-03-04T11:39:57.229Z,14.82
2023-03-04T11:42:39.451Z,15.98
2023-03-04T11:45:28.207Z,17.05
2023-03-04T11:48:41.369Z,13.48
2023-03-04T11:51:31.312Z,13.77
2023-03-04T11:54:16.380Z,11.75
2023-03-04T11:56:52.665Z,11.75
2023-03-04T11:59:52.829Z,13.45
2023-03-04T12:02:24.539Z,11.70
2023-03-04T12:05:13.206Z,11.88
2023-03-04T12:07:52.074Z,12.25
2023-03-04T12:10:47.220Z,9.90
2023-03-04T12:13:17.092Z,14.25
2023-03-04T12:16:05.133Z,13.18
2023-03-04T12:18:44.130Z,9.57
2023-03-04T12:21:33.055Z,9.88
2023-03-04T12:24:03.084Z,8.65
2023-03-04T12:26:45.074Z,9.60
2023-03-04T12:29:34.320Z,10.15
2023-03-04T12:32:24.624Z,7.95
2023-03-04T12:35:24.068Z,21.63
2023-03-04T12:38:04.857Z,10.40
2023-03-04T12:41:00.747Z,9.30
2023-03-04T12:43:45.373Z,11.50
2023-03-04T12:46:32.189Z,11.65
2023-03-04T12:49:37.876Z,9.57
2023-03-04T12:52:21.566Z,9.15
2023-03-04T12:54:57.890Z,9.20
2023-03-04T12:57:31.754Z,8.93
2023-03-04T13:00:17.768Z,8.60
2023-03-04T13:02:54.123Z,7.07
2023-03-04T13:08:16.330Z,9.52
2023-03-04T13:10:43.179Z,10.30
2023-03-04T13:13:39.788Z,9.13
2023-03-04T13:16:37.106Z,8.70
2023-03-04T13:19:42.924Z,7.55
2023-03-04T13:22:28.562Z,6.80
2023-03-04T13:25:02.320Z,7.85
2023-03-04T13:27:51.780Z,6.50
2023-03-04T13:30:38.446Z,11.45
2023-03-04T13:33:15.553Z,6.32
2023-03-04T13:35:54.397Z,11.45
2023-03-04T13:38:27.157Z,10.30
2023-03-04T13:41:33.392Z,12.68
2023-03-04T13:44:02.291Z,10.05
2023-03-04T13:46:39.710Z,15.57
2023-03-04T13:49:17.594Z,8.50
2023-03-04T13:51:46.087Z,11.70
2023-03-04T13:54:32.832Z,11.05
2023-03-04T13:57:20.845Z,8.10
2023-03-04T13:59:50.456Z,8.80
2023-03-04T14:02:23.261Z,10.27
2023-03-04T14:05:00.927Z,7.97
2023-03-04T14:07:37.231Z,9.00
2023-03-04T14:10:13.185Z,10.45
2023-03-04T14:12:55.604Z,10.30
2023-03-04T14:15:28.534Z,7.95
2023-03-04T14:17:58.492Z,8.18
2023-03-04T14:20:28.732Z,6.85
2023-03-04T14:22:57.972Z,10.10
2023-03-04T14:25:35.486Z,7.28
2023-03-04T14:28:16.677Z,10.63
2023-03-04T14:30:55.087Z,9.55
2023-03-04T14:33:32.409Z,9.43
2023-03-04T14:36:01.576Z,10.15
2023-03-04T14:38:35.420Z,10.85
2023-03-04T14:41:02.234Z,10.35
2023-03-04T14:43:31.169Z,13.65
2023-03-04T14:46:01.093Z,9.20
2023-03-04T14:48:33.590Z,9.63
2023-03-04T14:51:02.794Z,12.40
2023-03-04T14:53:32.713Z,10.95
2023-03-04T14:56:06.294Z,13.88
2023-03-04T14:58:35.381Z,13.93
2023-03-04T15:01:14.335Z,11.63
2023-03-04T15:03:44.437Z,11.75
2023-03-04T15:06:33.150Z,8.25
2023-03-04T15:09:06.270Z,12.98
2023-03-04T15:12:00.401Z,9.70
2023-03-04T15:14:52.030Z,12.75
2023-03-04T15:17:38.529Z,12.30
2023-03-04T15:20:11.195Z,11.60
2023-03-04T15:22:41.016Z,10.93
2023-03-04T15:25:15.392Z,12.05
2023-03-04T15:27:43.944Z,7.28
2023-03-04T15:30:18.012Z,9.40
2023-03-04T15:32:45.057Z,9.18
2023-03-04T15:35:16.725Z,8.57
2023-03-04T15:37:44.427Z,8.27
2023-03-04T15:40:35.648Z,11.90
2023-03-04T15:43:04.912Z,10.20
2023-03-04T15:45:37.028Z,9.77
2023-03-04T15:48:09.867Z,11.57
2023-03-04T15:50:39.822Z,11.00
2023-03-04T15:53:31.002Z,11.57
2023-03-04T15:55:57.951Z,10.23
2023-03-04T15:58:25.483Z,7.25
2023-03-04T16:00:52.328Z,8.55
2023-03-04T16:03:20.910Z,9.52
2023-03-04T16:05:50.347Z,12.05
2023-03-04T16:08:20.452Z,9.25
2023-03-04T16:10:48.077Z,10.32
2023-03-04T16:13:17.223Z,9.23
2023-03-04T16:15:44.675Z,10.10
2023-03-04T16:18:13.532Z,9.65
2023-03-04T16:20:44.109Z,8.43
2023-03-04T16:23:14.499Z,8.32
2023-03-04T16:25:44.516Z,10.32
2023-03-04T16:28:12.476Z,6.60
2023-03-04T16:30:40.596Z,10.52
2023-03-04T16:33:07.759Z,8.25
2023-03-04T16:35:36.771Z,9.07
2023-03-04T16:38:06.527Z,8.20
2023-03-04T16:40:33.540Z,7.15
2023-03-04T16:43:00.351Z,7.47
2023-03-04T16:45:30.587Z,7.95
2023-03-04T16:47:57.934Z,7.68
2023-03-04T16:50:27.468Z,11.48
2023-03-04T16:52:56.455Z,9.48
2023-03-04T16:55:30.364Z,7.88
2023-03-04T16:58:00.741Z,9.18
2023-03-04T17:00:29.180Z,8.38
2023-03-04T17:02:59.834Z,9.52
2023-03-04T17:05:30.292Z,7.60
2023-03-04T17:07:57.485Z,9.60
2023-03-04T17:10:25.223Z,8.93
2023-03-04T17:12:52.300Z,9.43
2023-03-04T17:15:19.540Z,9.68
2023-03-04T17:17:46.610Z,8.82
2023-03-04T17:20:16.285Z,10.73
2023-03-04T17:22:44.069Z,8.32
2023-03-04T17:25:12.128Z,10.13
2023-03-04T17:27:39.004Z,10.10
2023-03-04T17:30:08.959Z,8.75
2023-03-04T17:32:39.083Z,7.75
2023-03-04T17:35:08.171Z,9.45
2023-03-04T17:37:36.412Z,12.55
2023-03-04T17:40:08.866Z,9.07
2023-03-04T17:42:36.112Z,9.88
2023-03-04T17:45:03.009Z,10.85
2023-03-04T17:47:30.083Z,8.60
2023-03-04T17:49:59.566Z,7.40
2023-03-04T17:52:26.504Z,10.27
2023-03-04T17:54:53.386Z,9.07
2023-03-04T17:57:20.224Z,11.20
2023-03-04T17:59:47.081Z,11.10
2023-03-04T18:02:15.938Z,11.55
2023-03-04T18:04:45.337Z,15.95
2023-03-04T18:07:12.314Z,11.30
2023-03-04T18:09:39.939Z,11.73
2023-03-04T18:12:07.359Z,11.15
2023-03-04T18:14:34.660Z,11.30
2023-03-04T18:17:01.657Z,8.90
2023-03-04T18:19:28.497Z,9.35
2023-03-04T18:21:55.596Z,8.82
2023-03-04T18:24:22.501Z,9.60
2023-03-04T18:26:49.461Z,11.32
2023-03-04T18:29:16.387Z,14.95
2023-03-04T18:31:43.365Z,11.02
2023-03-04T18:34:11.036Z,9.27
2023-03-04T18:36:37.947Z,8.77
2023-03-04T18:39:07.637Z,10.52
2023-03-04T18:41:34.762Z,12.73
2023-03-04T18:44:01.787Z,9.43
2023-03-04T18:46:43.744Z,10.05
2023-03-04T18:49:12.532Z,10.63
2023-03-04T18:51:39.403Z,8.38
2023-03-04T19:22:53.456Z,8.20
2023-03-04T19:25:20.305Z,10.77
2023-03-04T19:27:47.418Z,8.38
2023-03-04T19:30:14.609Z,6.82
2023-03-04T19:32:41.616Z,9.15
2023-03-04T19:35:08.745Z,9.75
2023-03-04T19:37:35.729Z,9.98
2023-03-04T19:40:03.088Z,9.40
2023-03-04T19:42:30.017Z,9.95
2023-03-04T19:44:57.031Z,11.10
2023-03-04T19:47:23.939Z,10.82
2023-03-04T19:49:50.945Z,7.18
2023-03-04T19:52:17.811Z,9.45
2023-03-04T19:54:44.677Z,10.32
2023-03-04T19:57:11.676Z,9.13
2023-03-04T20:03:26.525Z,10.20
2023-03-04T20:06:03.536Z,9.35
2023-03-04T20:08:30.305Z,10.52
2023-03-04T20:10:57.319Z,9.45
2023-03-04T20:13:24.267Z,9.45
2023-03-04T20:15:51.591Z,14.52
2023-03-04T20:18:18.554Z,9.32
2023-03-04T20:20:45.400Z,9.85
2023-03-04T20:23:12.432Z,8.15
2023-03-04T20:25:39.558Z,14.30
2023-03-04T20:28:06.442Z,10.40
2023-03-04T20:30:33.297Z,11.18
2023-03-04T20:33:00.098Z,8.52
2023-03-04T20:35:26.975Z,9.18
2023-03-04T20:37:53.844Z,7.47
2023-03-04T20:40:20.806Z,12.15
2023-03-04T20:42:48.179Z,12.60
2023-03-04T20:45:15.237Z,11.27
2023-03-04T20:47:42.129Z,10.13
2023-03-04T20:50:09.463Z,9.50
2023-03-04T20:52:36.443Z,8.60
2023-03-04T20:55:03.229Z,9.02
2023-03-04T20:57:30.554Z,10.80
2023-03-04T20:59:57.463Z,10.68
2023-03-04T21:02:25.464Z,10.35
2023-03-04T21:04:52.356Z,9.00
2023-03-04T21:07:19.306Z,9.20
2023-03-04T21:09:46.157Z,9.85
2023-03-04T21:12:12.978Z,10.07
2023-03-04T21:14:40.060Z,11.93
2023-03-04T21:17:07.116Z,8.85
2023-03-04T21:19:42.326Z,9.90
2023-03-04T21:38:31.456Z,10.68
2023-03-04T21:40:58.350Z,10.90
2023-03-04T21:43:25.223Z,11.13
2023-03-04T21:45:54.509Z,12.05
2023-03-04T21:48:21.806Z,11.07
2023-03-04T21:50:48.745Z,13.68
2023-03-04T21:53:21.749Z,12.95
2023-03-04T21:55:51.004Z,11.40
2023-03-04T21:58:18.033Z,11.63
2023-03-04T22:00:45.175Z,12.45
2023-03-04T22:03:12.354Z,12.95
2023-03-04T22:05:44.733Z,11.95
2023-03-04T22:08:12.817Z,11.07
2023-03-04T22:10:41.034Z,11.30
2023-03-04T22:13:09.311Z,13.75
2023-03-04T22:15:37.930Z,13.85
2023-03-04T22:18:06.323Z,10.35
2023-03-04T22:20:35.078Z,15.80
2023-03-04T22:23:02.213Z,13.35
2023-03-04T22:25:29.597Z,11.40
2023-03-04T22:27:56.887Z,13.07
2023-03-04T22:30:23.814Z,11.48
2023-03-04T22:32:51.263Z,15.20
2023-03-04T22:35:19.160Z,12.68
2023-03-04T22:37:46.517Z,20.08
2023-03-04T22:40:15.405Z,13.85
2023-03-04T22:42:44.584Z,14.57
2023-03-04T22:45:13.173Z,13.27
2023-03-04T22:47:46.161Z,13.48
2023-03-04T22:50:13.502Z,12.45
2023-03-04T22:52:41.940Z,12.38
2023-03-04T22:55:09.254Z,13.60
2023-03-04T22:57:36.368Z,12.75
2023-03-04T23:00:13.765Z,11.70
2023-03-04T23:02:40.672Z,13.98
2023-03-04T23:05:08.483Z,15.40
2023-03-04T23:07:36.750Z,10.98
2023-03-04T23:10:05.646Z,11.48
2023-03-04T23:12:33.820Z,13.57
2023-03-04T23:15:01.378Z,13.77
2023-03-04T23:17:28.346Z,14.05
2023-03-04T23:19:55.224Z,14.23
2023-03-04T23:22:22.158Z,14.80
2023-03-04T23:24:48.949Z,12.60
2023-03-04T23:27:15.777Z,12.05
2023-03-04T23:29:42.650Z,12.57
2023-03-04T23:32:09.865Z,13.00
2023-03-04T23:34:36.639Z,16.52
2023-03-04T23:37:03.938Z,13.90
2023-03-04T23:39:30.805Z,14.23
2023-03-04T23:41:57.639Z,12.23
2023-03-04T23:44:24.492Z,14.38
2023-03-04T23:46:51.450Z,13.38
2023-03-04T23:49:18.837Z,11.32
2023-03-04T23:51:45.989Z,11.95
2023-03-04T23:54:14.072Z,14.45
2023-03-04T23:56:41.058Z,13.35
2023-03-04T23:59:08.109Z,16.88
